Time;durP1;ratioP1;P1;durP2;ratioP2;P2;SDS_P1;SDS_P2;PMS_P1;PMS_P2;Temp;Humidity;BMP_temperature;BMP_pressure;BME280_temperature;BME280_humidity;BME280_pressure;Samples;Min_cycle;Max_cycle;Signal;HPM_P1;HPM_P2
2021/11/12 00:02:21;;;;;;;142.65;61.90;;;2.20;99.90;;;;;;4964230;28;20042;-74
2021/11/12 00:11:47;;;;;;;131.45;63.80;;;2.30;99.90;;;;;;4965199;28;20043;-72
2021/11/12 00:13:18;;;;;;;127.97;63.30;;;2.20;99.90;;;;;;4955126;28;20050;-74
2021/11/12 00:15:56;;;;;;;134.52;62.40;;;2.20;99.90;;;;;;4970330;28;20035;-72
2021/11/12 00:18:27;;;;;;;130.30;64.72;;;2.20;99.90;;;;;;4955309;28;20039;-73
2021/11/12 00:20:54;;;;;;;;;;;2.20;99.90;;;;;;4956007;28;20393;-73
2021/11/12 00:23:21;;;;;;;126.63;59.17;;;2.20;99.90;;;;;;4955717;28;19910;-73
2021/11/12 00:25:50;;;;;;;118.85;60.80;;;2.20;99.90;;;;;;4955426;28;20034;-78
2021/11/12 00:28:19;;;;;;;124.63;59.10;;;2.30;99.90;;;;;;4955625;28;20035;-71
2021/11/12 00:38:21;;;;;;;115.47;56.80;;;2.10;99.90;;;;;;4955700;28;20380;-71
2021/11/12 00:45:52;;;;;;;115.25;57.80;;;2.10;99.90;;;;;;4955187;28;20027;-71
2021/11/12 00:48:24;;;;;;;119.45;56.47;;;2.20;99.90;;;;;;4955222;28;20047;-77
2021/11/12 00:50:59;;;;;;;121.63;59.05;;;2.30;99.90;;;;;;4954339;28;20035;-75
2021/11/12 00:55:51;;;;;;;129.52;58.95;;;2.10;99.90;;;;;;4952607;28;20500;-73
2021/11/12 00:58:17;;;;;;;116.30;56.65;;;2.10;99.90;;;;;;4955045;28;20031;-73
2021/11/12 01:00:45;;;;;;;122.72;60.35;;;2.10;99.90;;;;;;4955241;28;20497;-73
2021/11/12 01:03:11;;;;;;;114.45;57.22;;;2.10;99.90;;;;;;4954265;28;20469;-73
2021/11/12 01:05:38;;;;;;;116.30;56.75;;;2.00;99.90;;;;;;4954754;28;20035;-73
2021/11/12 01:08:06;;;;;;;118.82;57.95;;;2.00;99.90;;;;;;4954816;28;20038;-72
2021/11/12 01:10:32;;;;;;;118.40;54.22;;;2.00;99.90;;;;;;4959172;28;20055;-73
2021/11/12 01:12:59;;;;;;;106.50;55.47;;;2.00;99.90;;;;;;4957923;28;20066;-72
2021/11/12 01:15:29;;;;;;;129.95;56.17;;;2.00;99.90;;;;;;4953096;28;20484;-72
2021/11/12 01:17:55;;;;;;;117.53;53.30;;;2.10;99.90;;;;;;4954279;28;20393;-72
2021/11/12 01:20:22;;;;;;;114.63;54.28;;;2.10;99.90;;;;;;4954965;28;20035;-72
2021/11/12 01:22:49;;;;;;;127.20;56.30;;;2.10;99.90;;;;;;4954512;28;20023;-72
2021/11/12 01:25:18;;;;;;;131.40;56.58;;;2.10;99.90;;;;;;4954446;28;20027;-72
2021/11/12 01:27:44;;;;;;;122.60;56.20;;;2.00;99.90;;;;;;4954558;28;20046;-72
2021/11/12 01:30:14;;;;;;;111.95;54.70;;;2.00;99.90;;;;;;4954228;28;20039;-72
2021/11/12 01:32:41;;;;;;;119.38;53.72;;;2.00;99.90;;;;;;4954561;28;20380;-72
2021/11/12 01:35:09;;;;;;;113.93;54.53;;;2.00;99.90;;;;;;4953843;28;20051;-72
2021/11/12 01:37:36;;;;;;;115.63;54.53;;;2.00;99.90;;;;;;4954176;28;20043;-72
2021/11/12 01:40:06;;;;;;;132.25;54.63;;;2.00;99.90;;;;;;4953903;28;20032;-72
2021/11/12 01:43:08;;;;;;;125.35;52.60;;;1.90;99.90;;;;;;4954397;28;20110;-72
2021/11/12 01:50:59;;;;;;;103.85;50.45;;;1.80;99.90;;;;;;4954253;28;20039;-73
2021/11/12 01:53:28;;;;;;;118.88;49.38;;;1.80;99.90;;;;;;4964559;28;20051;-72
2021/11/12 01:56:39;;;;;;;109.05;49.60;;;1.80;99.90;;;;;;4963046;28;20039;-72
2021/11/12 02:01:34;;;;;;;130.70;49.60;;;1.80;99.90;;;;;;4965634;28;20476;-72
2021/11/12 02:04:02;;;;;;;145.15;51.55;;;1.80;99.90;;;;;;4970636;28;20038;-72
2021/11/12 02:06:28;;;;;;;101.05;48.13;;;1.80;99.90;;;;;;4955686;28;20051;-72
2021/11/12 02:08:55;;;;;;;115.85;50.00;;;1.80;99.90;;;;;;4953782;28;20031;-72
2021/11/12 02:11:21;;;;;;;119.50;49.80;;;1.80;99.90;;;;;;4953948;28;20042;-72
2021/11/12 02:13:50;;;;;;;92.55;48.08;;;1.80;99.90;;;;;;4953688;28;20051;-72
2021/11/12 02:16:25;;;;;;;106.03;49.83;;;1.80;99.90;;;;;;4953508;28;20039;-72
2021/11/12 02:18:51;;;;;;;100.38;48.70;;;1.90;99.90;;;;;;4975664;28;20047;-78
2021/11/12 02:21:30;;;;;;;96.63;49.80;;;1.80;99.90;;;;;;4958261;28;20035;-76
2021/11/12 02:26:25;;;;;;;109.63;49.00;;;1.70;99.90;;;;;;4953780;28;20035;-72
2021/11/12 02:28:55;;;;;;;106.70;47.72;;;1.70;99.90;;;;;;4953871;28;20031;-77
2021/11/12 02:31:23;;;;;;;103.43;45.80;;;1.70;99.90;;;;;;4953898;28;20027;-72
2021/11/12 02:33:50;;;;;;;100.63;46.95;;;1.70;99.90;;;;;;4958351;28;20035;-73
2021/11/12 02:36:18;;;;;;;98.80;46.45;;;1.70;99.90;;;;;;4969329;28;20054;-72
2021/11/12 02:38:49;;;;;;;114.82;50.60;;;1.70;99.90;;;;;;4953659;28;20031;-74
2021/11/12 02:41:16;;;;;;;99.80;48.60;;;1.70;99.90;;;;;;4953233;28;20039;-73
2021/11/12 02:43:45;;;;;;;93.68;48.38;;;1.60;99.90;;;;;;4971859;28;20046;-72
2021/11/12 02:46:15;;;;;;;91.43;49.08;;;1.60;99.90;;;;;;4957195;28;20031;-73
2021/11/12 02:48:42;;;;;;;101.53;48.72;;;1.60;99.90;;;;;;4957128;28;20062;-72
2021/11/12 02:51:12;;;;;;;102.40;46.33;;;1.60;99.90;;;;;;4956462;28;20504;-73
2021/11/12 02:53:39;;;;;;;84.57;45.60;;;1.60;99.90;;;;;;4956594;28;20058;-73
2021/11/12 02:56:25;;;;;;;94.63;46.15;;;1.60;99.90;;;;;;4956435;28;20034;-72
2021/11/12 02:58:54;;;;;;;96.40;46.65;;;1.60;99.90;;;;;;4957577;28;20066;-72
2021/11/12 03:01:22;;;;;;;78.22;44.95;;;1.60;99.90;;;;;;4956680;28;20031;-72
2021/11/12 03:03:48;;;;;;;92.50;47.08;;;1.60;99.90;;;;;;4957559;28;20038;-72
2021/11/12 03:06:14;;;;;;;102.95;48.20;;;1.60;99.90;;;;;;4956898;28;20370;-72
2021/11/12 03:08:41;;;;;;;78.78;44.67;;;1.60;99.90;;;;;;4956975;28;20031;-72
2021/11/12 03:11:07;;;;;;;109.45;49.85;;;1.70;99.90;;;;;;4955173;28;20035;-72
2021/11/12 03:13:33;;;;;;;92.78;45.03;;;1.60;99.90;;;;;;4957062;28;20047;-72
2021/11/12 03:16:00;;;;;;;75.50;46.33;;;1.60;99.90;;;;;;4956323;28;20035;-72
2021/11/12 03:18:29;;;;;;;105.25;45.60;;;1.60;99.90;;;;;;4956688;28;20035;-71
2021/11/12 03:20:57;;;;;;;91.57;45.70;;;1.50;99.90;;;;;;4956603;28;20102;-72
2021/11/12 03:23:32;;;;;;;96.32;47.33;;;1.60;99.90;;;;;;4956728;28;20035;-72
2021/11/12 04:03:57;;;;;;;83.90;42.63;;;1.40;99.90;;;;;;4946317;28;20054;-72
2021/11/12 05:25:25;;;;;;;84.57;35.33;;;0.90;99.90;;;;;;4953853;28;20050;-73
2021/11/12 05:33:35;;;;;;;95.18;36.00;;;0.90;99.90;;;;;;4954392;28;20039;-71
2021/11/12 05:50:19;;;;;;;87.72;37.78;;;1.00;99.90;;;;;;4944629;28;20059;-72
2021/11/12 05:55:30;;;;;;;117.07;36.50;;;1.00;99.90;;;;;;4954823;28;20035;-72
2021/11/12 05:57:58;;;;;;;123.72;39.25;;;1.00;99.90;;;;;;4955960;29;20031;-74
2021/11/12 06:00:25;;;;;;;120.35;38.05;;;1.10;99.90;;;;;;4972375;28;20042;-72
2021/11/12 06:02:52;;;;;;;134.02;37.13;;;1.00;99.90;;;;;;4961779;28;20054;-72
2021/11/12 06:05:18;;;;;;;123.88;42.25;;;0.90;99.90;;;;;;4956994;28;20043;-72
2021/11/12 06:07:47;;;;;;;107.22;36.42;;;1.00;99.90;;;;;;4953639;28;20448;-72
2021/11/12 06:10:14;;;;;;;85.15;34.10;;;1.00;99.90;;;;;;4953773;28;20058;-72
2021/11/12 06:12:41;;;;;;;112.25;35.17;;;1.00;99.90;;;;;;4953665;28;20577;-72
2021/11/12 06:15:08;;;;;;;109.45;39.08;;;1.00;99.90;;;;;;4962095;28;20027;-72
2021/11/12 06:17:34;;;;;;;135.13;37.65;;;1.10;99.90;;;;;;4956024;28;20047;-72
2021/11/12 06:20:00;;;;;;;92.38;37.22;;;1.10;99.90;;;;;;4974613;28;20043;-72
2021/11/12 06:22:27;;;;;;;78.80;36.55;;;1.10;99.90;;;;;;4958098;28;20042;-72
2021/11/12 06:24:53;;;;;;;94.40;36.90;;;1.20;99.90;;;;;;4957676;28;20039;-72
2021/11/12 06:27:20;;;;;;;100.78;38.08;;;1.10;99.90;;;;;;4957752;28;20612;-72
2021/11/12 06:29:46;;;;;;;102.88;39.70;;;1.10;99.90;;;;;;4957521;28;20038;-72
2021/11/12 06:32:12;;;;;;;101.60;37.10;;;1.10;99.90;;;;;;4957138;28;20389;-72
2021/11/12 06:34:39;;;;;;;111.60;37.67;;;1.10;99.90;;;;;;4962766;28;20042;-72
2021/11/12 06:37:07;;;;;;;98.95;37.67;;;1.10;99.90;;;;;;4966370;28;20051;-72
2021/11/12 06:39:34;;;;;;;90.72;37.70;;;1.00;99.90;;;;;;4957690;28;20040;-72
2021/11/12 06:42:09;;;;;;;82.70;34.92;;;1.00;99.90;;;;;;4957058;28;20031;-72
2021/11/12 06:44:54;;;;;;;92.45;35.95;;;1.00;99.90;;;;;;4956813;28;20043;-72
2021/11/12 06:50:15;;;;;;;103.35;41.17;;;1.00;99.90;;;;;;4956891;28;20054;-72
2021/11/12 06:52:44;;;;;;;102.75;38.20;;;1.00;99.90;;;;;;4957628;28;20046;-71
2021/11/12 06:55:13;;;;;;;98.40;37.80;;;1.10;99.90;;;;;;4964344;28;20035;-71
2021/11/12 06:57:43;;;;;;;107.95;38.45;;;1.10;99.90;;;;;;4957227;28;20043;-71
2021/11/12 07:00:14;;;;;;;79.55;34.75;;;1.10;99.90;;;;;;4956625;28;20039;-71
2021/11/12 07:02:42;;;;;;;109.05;41.63;;;1.10;99.90;;;;;;4956869;29;20034;-73
2021/11/12 07:05:09;;;;;;;91.20;36.22;;;1.20;99.90;;;;;;4957244;28;20111;-71
2021/11/12 07:07:36;;;;;;;98.35;38.78;;;1.20;99.90;;;;;;4956977;28;20472;-71
2021/11/12 07:10:04;;;;;;;84.05;38.60;;;1.10;99.90;;;;;;4956572;28;20380;-71
2021/11/12 07:12:30;;;;;;;101.47;36.03;;;1.10;99.90;;;;;;4956882;28;20051;-71
2021/11/12 07:14:57;;;;;;;80.30;35.83;;;1.20;99.90;;;;;;4964606;28;20031;-71
2021/11/12 07:17:23;;;;;;;129.73;38.35;;;1.20;99.90;;;;;;4965046;28;20046;-71
2021/11/12 07:19:49;;;;;;;92.72;36.67;;;1.20;99.90;;;;;;4971984;28;20039;-70
2021/11/12 07:22:16;;;;;;;106.45;38.22;;;1.20;99.90;;;;;;4966390;28;20039;-71
2021/11/12 07:24:43;;;;;;;84.10;35.38;;;1.20;99.90;;;;;;4956113;28;20036;-73
2021/11/12 07:27:10;;;;;;;116.20;40.03;;;1.20;99.90;;;;;;4955793;28;20035;-72
2021/11/12 07:29:38;;;;;;;121.72;46.20;;;1.20;99.90;;;;;;4956589;28;20495;-72
2021/11/12 07:32:06;;;;;;;122.18;42.90;;;1.30;99.90;;;;;;4955958;28;20031;-72
2021/11/12 07:34:33;;;;;;;108.45;42.00;;;1.30;99.90;;;;;;4956525;28;20065;-72
2021/11/12 07:37:12;;;;;;;127.25;46.80;;;1.40;99.90;;;;;;4956361;28;20034;-73
2021/11/12 07:45:18;;;;;;;107.30;40.10;;;1.30;99.90;;;;;;4929485;28;20357;-72
2021/11/12 07:47:45;;;;;;;97.03;44.47;;;1.30;99.90;;;;;;4973778;28;20053;-73
2021/11/12 07:50:12;;;;;;;106.70;39.15;;;1.40;99.90;;;;;;4955799;28;20033;-73
2021/11/12 07:52:39;;;;;;;91.88;39.50;;;1.40;99.90;;;;;;4955613;28;20504;-73
2021/11/12 07:55:08;;;;;;;82.25;35.75;;;1.40;99.90;;;;;;4955852;28;20035;-73
2021/11/12 07:57:35;;;;;;;104.93;39.75;;;1.50;99.90;;;;;;4955666;28;20254;-73
2021/11/12 08:00:02;;;;;;;84.32;38.13;;;1.40;99.90;;;;;;4972360;28;20057;-73
2021/11/12 08:02:38;;;;;;;102.97;37.65;;;1.50;99.90;;;;;;4963438;28;20047;-73
2021/11/12 08:05:13;;;;;;;99.43;37.85;;;1.50;99.90;;;;;;4955682;28;20465;-73
2021/11/12 08:07:40;;;;;;;113.28;42.78;;;1.40;99.90;;;;;;4955908;28;20039;-73
2021/11/12 08:10:07;;;;;;;105.35;38.13;;;1.40;99.90;;;;;;4955253;28;20047;-72
2021/11/12 08:12:39;;;;;;;93.20;36.60;;;1.40;99.90;;;;;;4955781;28;20512;-72
2021/11/12 08:22:43;;;;;;;93.45;39.55;;;1.50;99.90;;;;;;4961398;28;20035;-72
2021/11/12 08:25:37;;;;;;;79.53;36.47;;;1.50;99.90;;;;;;4955851;28;20378;-73
2021/11/12 08:42:11;;;;;;;91.13;36.53;;;1.50;99.90;;;;;;4955408;28;20042;-73
2021/11/12 08:47:12;;;;;;;108.63;42.83;;;1.60;99.90;;;;;;4953232;28;20040;-73
2021/11/12 08:49:41;;;;;;;114.72;41.20;;;1.60;99.90;;;;;;4968397;28;20534;-73
2021/11/12 08:52:09;;;;;;;104.32;39.15;;;1.70;99.90;;;;;;4965572;28;20027;-72
2021/11/12 08:54:38;;;;;;;79.72;36.90;;;1.70;99.90;;;;;;4955134;28;20031;-73
2021/11/12 08:57:09;;;;;;;81.55;39.97;;;1.60;99.90;;;;;;4954696;28;20040;-73
2021/11/12 08:59:40;;;;;;;110.63;41.25;;;1.60;99.90;;;;;;4967538;28;20035;-74
2021/11/12 09:02:14;;;;;;;80.15;38.25;;;1.70;99.90;;;;;;4956857;28;20046;-72
2021/11/12 09:04:42;;;;;;;75.07;37.70;;;1.60;99.90;;;;;;4955184;28;20397;-72
2021/11/12 09:07:11;;;;;;;77.72;36.88;;;1.60;99.90;;;;;;4954745;28;20385;-72
2021/11/12 09:09:38;;;;;;;76.28;38.65;;;1.60;99.90;;;;;;4954827;28;20055;-73
2021/11/12 09:12:07;;;;;;;75.35;38.03;;;1.60;99.90;;;;;;4954113;28;20042;-72
2021/11/12 09:14:36;;;;;;;67.18;37.45;;;1.70;99.90;;;;;;4958128;28;20043;-70
2021/11/12 09:17:07;;;;;;;73.00;38.47;;;1.70;99.90;;;;;;4954322;29;20039;-76
2021/11/12 09:19:44;;;;;;;86.88;44.65;;;1.80;99.90;;;;;;4954585;28;20497;-69
2021/11/12 09:22:11;;;;;;;80.55;41.97;;;1.90;99.90;;;;;;4953389;28;20035;-75
2021/11/12 09:24:38;;;;;;;85.70;40.13;;;1.90;99.90;;;;;;4953919;29;20031;-69
2021/11/12 09:27:05;;;;;;;71.63;37.67;;;2.00;99.90;;;;;;4953517;28;20043;-76
2021/11/12 09:29:31;;;;;;;71.82;39.17;;;2.00;99.90;;;;;;4953161;28;20046;-72
2021/11/12 09:31:58;;;;;;;74.38;37.03;;;2.00;99.90;;;;;;4973545;28;20467;-70
2021/11/12 09:34:24;;;;;;;73.53;38.22;;;2.10;99.90;;;;;;4954680;28;20043;-70
2021/11/12 09:36:52;;;;;;;97.80;44.30;;;2.20;99.90;;;;;;4954374;28;20035;-70
2021/11/12 09:39:18;;;;;;;80.80;42.13;;;2.30;99.90;;;;;;4953810;28;20031;-70
2021/11/12 09:41:44;;;;;;;83.22;42.20;;;2.40;99.90;;;;;;4953880;28;20035;-70
2021/11/12 09:44:12;;;;;;;61.55;39.45;;;2.30;99.90;;;;;;4953559;28;20047;-70
2021/11/12 09:46:38;;;;;;;84.60;41.63;;;2.40;99.90;;;;;;4951892;28;20047;-70
2021/11/12 09:49:05;;;;;;;83.18;47.13;;;2.40;99.90;;;;;;4953607;28;20043;-70
2021/11/12 09:51:31;;;;;;;89.55;49.15;;;2.40;99.90;;;;;;4966799;28;20031;-70
2021/11/12 09:53:58;;;;;;;89.07;51.47;;;2.30;99.90;;;;;;4954157;29;20031;-70
2021/11/12 09:56:25;;;;;;;93.00;50.47;;;2.40;99.90;;;;;;4971046;28;20042;-73
2021/11/12 09:58:51;;;;;;;97.38;53.90;;;2.50;99.90;;;;;;4952292;29;20080;-73
2021/11/12 10:01:26;;;;;;;88.05;52.05;;;2.40;99.90;;;;;;4955341;28;20031;-70
2021/11/12 10:03:53;;;;;;;99.75;55.15;;;2.50;99.90;;;;;;4955922;28;20038;-70
2021/11/12 10:06:24;;;;;;;106.22;56.22;;;2.60;99.90;;;;;;4952591;28;20521;-69
2021/11/12 10:08:52;;;;;;;104.75;54.35;;;2.60;99.90;;;;;;4953288;28;20050;-70
2021/11/12 10:11:33;;;;;;;88.05;52.67;;;2.80;99.90;;;;;;4953584;29;20031;-69
2021/11/12 10:14:10;;;;;;;101.15;54.08;;;2.60;99.90;;;;;;4953459;28;20062;-72
2021/11/12 10:16:36;;;;;;;98.00;53.67;;;2.50;99.90;;;;;;4953599;28;20504;-70
2021/11/12 10:19:17;;;;;;;103.80;54.15;;;2.60;99.90;;;;;;4953142;28;20040;-77
2021/11/12 10:21:52;;;;;;;102.57;52.33;;;2.60;99.90;;;;;;4953930;28;20039;-69
2021/11/12 10:24:27;;;;;;;102.32;54.40;;;2.70;99.90;;;;;;4953485;28;20054;-74
2021/11/12 10:27:02;;;;;;;100.38;60.55;;;2.70;99.90;;;;;;4954142;28;20338;-70
2021/11/12 10:29:31;;;;;;;103.38;59.58;;;2.80;99.90;;;;;;4962752;28;20499;-70
2021/11/12 10:32:02;;;;;;;117.25;68.35;;;2.90;99.90;;;;;;4958220;28;20380;-70
2021/11/12 10:34:31;;;;;;;96.53;57.42;;;2.90;99.90;;;;;;4960719;28;20047;-74
2021/11/12 10:37:31;;;;;;;116.57;71.20;;;3.00;99.90;;;;;;4953496;28;20046;-70
2021/11/12 10:40:08;;;;;;;95.60;58.03;;;3.10;99.90;;;;;;4959790;28;20054;-71
2021/11/12 10:42:39;;;;;;;89.82;53.03;;;3.00;99.90;;;;;;4967305;28;20035;-71
2021/11/12 10:45:07;;;;;;;106.97;63.47;;;2.90;99.90;;;;;;4968944;28;20069;-71
2021/11/12 10:47:42;;;;;;;90.63;52.72;;;3.00;99.90;;;;;;4961336;28;20035;-71
2021/11/12 10:50:09;;;;;;;90.38;51.38;;;3.10;99.90;;;;;;4952779;28;20047;-71
2021/11/12 10:52:37;;;;;;;74.47;48.53;;;2.90;99.90;;;;;;4961765;28;20039;-70
2021/11/12 10:55:12;;;;;;;84.03;51.10;;;2.70;99.90;;;;;;4963030;28;20032;-77
2021/11/12 10:57:41;;;;;;;84.53;49.35;;;2.60;99.90;;;;;;4953231;28;20043;-73
2021/11/12 11:00:25;;;;;;;81.25;48.97;;;2.50;99.90;;;;;;4954024;28;20031;-74
2021/11/12 11:03:01;;;;;;;75.75;51.08;;;2.50;99.90;;;;;;4970518;28;20475;-74
2021/11/12 11:05:33;;;;;;;84.03;54.08;;;2.60;99.90;;;;;;4956785;28;20043;-75
2021/11/12 11:08:05;;;;;;;89.40;54.75;;;2.70;99.90;;;;;;4957162;28;20036;-75
2021/11/12 11:10:33;;;;;;;84.75;52.83;;;2.70;99.90;;;;;;4973326;28;20034;-75
2021/11/12 11:13:18;;;;;;;95.78;52.35;;;2.70;99.90;;;;;;4963417;28;20048;-73
2021/11/12 11:15:52;;;;;;;74.72;50.15;;;2.70;99.90;;;;;;4957138;28;20047;-72
2021/11/12 11:18:40;;;;;;;86.40;53.42;;;2.80;99.90;;;;;;4956387;28;20050;-72
2021/11/12 11:21:13;;;;;;;83.18;54.17;;;2.80;99.90;;;;;;4956389;28;20043;-72
2021/11/12 11:23:58;;;;;;;79.28;51.25;;;2.80;99.90;;;;;;4972953;28;20034;-73
2021/11/12 11:26:28;;;;;;;92.45;52.17;;;2.70;99.90;;;;;;4956382;28;20036;-72
2021/11/12 11:28:58;;;;;;;96.65;52.78;;;2.50;99.90;;;;;;4956715;28;20031;-72
2021/11/12 11:31:25;;;;;;;81.95;53.03;;;2.50;99.90;;;;;;4955845;28;20035;-72
2021/11/12 11:33:53;;;;;;;83.88;51.65;;;2.60;99.90;;;;;;4971081;28;20418;-72
2021/11/12 11:36:22;;;;;;;79.60;51.88;;;2.50;99.90;;;;;;4955743;28;20051;-74
2021/11/12 11:38:51;;;;;;;75.63;51.38;;;2.60;99.90;;;;;;4956455;29;20039;-73
2021/11/12 11:41:20;;;;;;;74.00;48.40;;;2.50;99.90;;;;;;4956073;28;20496;-73
2021/11/12 11:43:47;;;;;;;95.70;53.85;;;2.60;99.90;;;;;;4955959;28;20027;-74
2021/11/12 11:46:22;;;;;;;86.47;52.05;;;2.70;99.90;;;;;;4956274;28;20457;-72
2021/11/12 11:48:51;;;;;;;87.85;53.08;;;2.80;99.90;;;;;;4956272;28;20472;-72
2021/11/12 11:51:25;;;;;;;89.55;53.03;;;2.90;99.90;;;;;;4956080;28;20036;-72
2021/11/12 11:53:51;;;;;;;89.22;54.75;;;2.80;99.90;;;;;;4956501;28;20039;-72
2021/11/12 11:56:31;;;;;;;80.03;52.00;;;2.60;99.90;;;;;;4955528;28;20031;-72
2021/11/12 11:59:02;;;;;;;74.57;50.92;;;2.70;99.90;;;;;;4972413;28;20054;-71
2021/11/12 12:01:35;;;;;;;80.33;52.30;;;2.70;99.90;;;;;;4966834;28;20039;-71
2021/11/12 12:04:08;;;;;;;93.25;53.60;;;2.70;99.90;;;;;;4958174;28;20036;-74
2021/11/12 12:06:35;;;;;;;93.65;56.38;;;2.70;99.90;;;;;;4956081;28;20492;-71
2021/11/12 12:09:11;;;;;;;87.05;53.63;;;2.80;99.90;;;;;;4986068;28;20054;-72
2021/11/12 12:11:49;;;;;;;78.88;51.65;;;2.80;99.90;;;;;;4956083;28;20045;-72
2021/11/12 12:14:27;;;;;;;80.25;53.45;;;2.80;99.90;;;;;;4957560;28;20393;-72
2021/11/12 12:17:20;;;;;;;83.55;53.28;;;2.80;99.90;;;;;;4960050;28;20496;-72
2021/11/12 12:34:01;;;;;;;75.57;52.10;;;3.20;99.90;;;;;;4955746;28;20035;-72
2021/11/12 13:25:43;;;;;;;117.35;81.13;;;2.60;99.90;;;;;;4953915;28;20039;-73
2021/11/12 13:28:25;;;;;;;96.10;62.85;;;2.50;99.90;;;;;;4970976;28;20130;-73
2021/11/12 13:30:55;;;;;;;91.95;64.15;;;2.50;99.90;;;;;;4954572;28;20046;-73
2021/11/12 13:33:38;;;;;;;101.55;72.80;;;2.50;99.90;;;;;;4954139;28;20039;-73
2021/11/12 13:36:28;;;;;;;104.82;77.60;;;2.50;99.90;;;;;;4969588;28;20047;-72
2021/11/12 13:39:01;;;;;;;82.95;54.03;;;2.40;99.90;;;;;;4954739;28;20047;-74
2021/11/12 13:41:35;;;;;;;81.22;51.67;;;2.40;99.90;;;;;;4954151;28;20279;-74
2021/11/12 13:44:07;;;;;;;67.97;46.78;;;2.30;99.90;;;;;;4954772;28;20061;-73
2021/11/12 13:46:54;;;;;;;77.20;48.75;;;2.30;99.90;;;;;;4954210;28;20035;-73
2021/11/12 13:49:26;;;;;;;74.38;47.60;;;2.30;99.90;;;;;;4953883;28;20035;-73
2021/11/12 13:51:57;;;;;;;64.80;46.80;;;2.20;99.90;;;;;;4954184;28;20035;-74
2021/11/12 13:54:24;;;;;;;76.03;53.33;;;2.30;99.90;;;;;;4953767;28;20039;-75
2021/11/12 13:56:50;;;;;;;90.15;59.58;;;2.30;99.90;;;;;;4954269;28;20499;-73
2021/11/12 13:59:16;;;;;;;87.68;59.45;;;2.30;99.90;;;;;;4953618;28;20039;-73
2021/11/12 14:01:43;;;;;;;94.43;53.17;;;2.50;99.90;;;;;;4953880;28;20043;-73
2021/11/12 14:04:22;;;;;;;74.55;50.72;;;2.40;99.90;;;;;;4954821;28;20032;-74
2021/11/12 14:06:49;;;;;;;81.82;51.65;;;2.30;99.90;;;;;;4954664;28;20039;-73
2021/11/12 14:09:24;;;;;;;75.97;55.53;;;2.30;99.90;;;;;;4953539;28;20043;-73
2021/11/12 14:12:06;;;;;;;109.57;76.53;;;2.40;99.90;;;;;;4954000;28;20031;-74
2021/11/12 14:14:34;;;;;;;99.70;62.42;;;2.50;99.90;;;;;;4953751;28;20054;-73
2021/11/12 14:17:22;;;;;;;98.05;59.28;;;2.40;99.90;;;;;;4964372;28;20030;-73
2021/11/12 14:19:57;;;;;;;97.45;60.88;;;2.40;99.90;;;;;;4957609;28;20039;-73
2021/11/12 14:22:36;;;;;;;91.75;61.40;;;2.40;99.90;;;;;;4967022;28;20050;-74
2021/11/12 14:25:23;;;;;;;91.57;60.92;;;2.40;99.90;;;;;;4953763;28;20484;-73
2021/11/12 14:28:39;;;;;;;98.60;64.53;;;2.30;99.90;;;;;;4967374;28;20031;-73
2021/11/12 14:39:05;;;;;;;99.00;66.95;;;2.40;99.90;;;;;;4957064;28;20047;-73
2021/11/12 14:49:37;;;;;;;84.18;54.55;;;2.50;99.90;;;;;;4962711;28;19921;-72
2021/11/12 14:52:10;;;;;;;96.25;57.53;;;2.50;99.90;;;;;;4960001;28;20473;-72
2021/11/12 14:54:46;;;;;;;89.78;58.00;;;2.60;99.90;;;;;;4957412;28;20472;-76
2021/11/12 14:57:28;;;;;;;107.32;58.78;;;2.60;99.90;;;;;;4957029;29;20500;-72
2021/11/12 15:00:08;;;;;;;92.53;53.80;;;2.50;99.90;;;;;;4957187;29;20042;-78
2021/11/12 15:02:36;;;;;;;74.75;51.70;;;2.40;99.90;;;;;;4956987;28;20050;-73
2021/11/12 15:05:04;;;;;;;82.75;53.60;;;2.30;99.90;;;;;;4973613;28;20043;-72
2021/11/12 15:07:46;;;;;;;95.00;60.55;;;2.40;99.90;;;;;;4956314;28;20031;-72
2021/11/12 15:10:16;;;;;;;84.82;54.65;;;2.50;99.90;;;;;;4969155;28;20069;-73
2021/11/12 15:12:48;;;;;;;103.30;65.05;;;2.40;99.90;;;;;;4959357;28;20492;-72
2021/11/12 15:15:15;;;;;;;81.65;54.40;;;2.40;99.90;;;;;;4955504;28;20039;-73
2021/11/12 15:17:42;;;;;;;93.80;60.65;;;2.40;99.90;;;;;;4955411;28;20051;-74
2021/11/12 15:20:09;;;;;;;86.45;57.45;;;2.30;99.90;;;;;;4956313;28;20108;-74
2021/11/12 15:25:13;;;;;;;89.30;60.03;;;2.30;99.90;;;;;;4967373;28;20031;-73
2021/11/12 15:33:14;;;;;;;77.97;54.58;;;2.20;99.90;;;;;;4965709;28;20046;-72
2021/11/12 15:35:41;;;;;;;161.07;134.30;;;2.20;99.90;;;;;;4956271;28;20043;-72
2021/11/12 15:40:56;;;;;;;87.22;60.67;;;2.20;99.90;;;;;;4982257;28;20468;-75
2021/11/12 15:43:39;;;;;;;141.05;98.88;;;2.20;99.90;;;;;;4955739;28;20039;-71
2021/11/12 15:46:20;;;;;;;85.40;57.35;;;2.20;99.90;;;;;;4973849;28;20035;-71
2021/11/12 15:48:48;;;;;;;79.72;53.70;;;2.20;99.90;;;;;;4980498;28;20023;-72
2021/11/12 16:14:46;;;;;;;133.43;84.72;;;2.20;99.90;;;;;;4982501;28;20039;-71
2021/11/12 16:25:09;;;;;;;99.38;59.42;;;2.20;99.90;;;;;;4977499;28;20032;-71
2021/11/12 16:27:33;;;;;;;89.13;58.80;;;2.20;99.90;;;;;;4972700;28;20054;-71
2021/11/12 16:30:04;;;;;;;96.13;60.25;;;2.20;99.90;;;;;;4964843;28;20031;-71
2021/11/12 16:32:40;;;;;;;113.20;69.35;;;2.30;99.90;;;;;;4954654;28;20038;-70
2021/11/12 16:35:10;;;;;;;95.88;59.33;;;2.40;99.90;;;;;;4955484;28;20359;-71
2021/11/12 16:37:36;;;;;;;96.18;55.65;;;2.40;99.90;;;;;;4954516;28;20047;-71
2021/11/12 16:40:23;;;;;;;83.80;53.60;;;2.40;99.90;;;;;;4966500;28;20045;-71
2021/11/12 16:43:04;;;;;;;133.35;97.03;;;2.30;99.90;;;;;;4959648;28;20043;-71
2021/11/12 16:48:19;;;;;;;179.00;127.40;;;2.30;99.90;;;;;;4972364;28;20034;-71
2021/11/12 16:51:04;;;;;;;146.60;112.05;;;2.30;99.90;;;;;;4973228;28;20488;-72
2021/11/12 16:53:57;;;;;;;167.38;129.65;;;2.30;99.90;;;;;;4965860;28;20233;-72
2021/11/12 17:07:10;;;;;;;149.15;105.63;;;2.30;99.90;;;;;;4954715;28;20039;-70
2021/11/12 17:12:31;;;;;;;95.20;54.70;;;2.30;99.90;;;;;;4966502;28;20031;-73
2021/11/12 17:47:15;;;;;;;113.05;60.80;;;2.30;99.90;;;;;;4953449;28;20035;-72
2021/11/12 21:48:06;;;;;;;87.00;45.58;;;2.30;99.90;;;;;;4935165;29;20445;-78
2021/11/12 21:50:33;;;;;;;112.63;52.22;;;2.30;99.90;;;;;;4934434;29;20043;-72
2021/11/12 21:53:00;;;;;;;94.22;48.33;;;2.30;99.90;;;;;;4935159;29;20035;-72
2021/11/12 21:55:28;;;;;;;86.65;46.35;;;2.30;99.90;;;;;;4935393;29;20031;-71
2021/11/12 21:57:54;;;;;;;84.97;44.55;;;2.40;99.90;;;;;;4934399;29;20046;-71
2021/11/12 22:00:21;;;;;;;90.57;48.33;;;2.30;99.90;;;;;;4934707;29;20036;-71
2021/11/12 22:02:47;;;;;;;93.07;47.13;;;2.30;99.90;;;;;;4935219;29;20046;-72
2021/11/12 22:05:13;;;;;;;82.13;44.17;;;2.30;99.90;;;;;;4934966;29;20032;-71
2021/11/12 22:07:40;;;;;;;86.40;43.90;;;2.30;99.90;;;;;;4934847;29;20031;-72
2021/11/12 22:10:08;;;;;;;77.28;44.33;;;2.30;99.90;;;;;;4935457;29;20468;-71
2021/11/12 22:12:35;;;;;;;79.38;45.28;;;2.30;99.90;;;;;;4939259;29;20047;-72
2021/11/12 22:15:02;;;;;;;83.82;44.45;;;2.30;99.90;;;;;;4969273;28;20484;-72
2021/11/12 22:17:29;;;;;;;74.75;41.50;;;2.40;99.90;;;;;;4953701;28;20031;-73
2021/11/12 22:19:56;;;;;;;72.97;40.83;;;2.40;99.90;;;;;;4954593;28;20067;-71
2021/11/12 22:22:23;;;;;;;69.00;39.20;;;2.30;99.90;;;;;;4953171;28;20054;-72
2021/11/12 22:24:49;;;;;;;82.00;44.30;;;2.40;99.90;;;;;;4954060;28;20368;-74
2021/11/12 22:27:16;;;;;;;78.45;41.97;;;2.30;99.90;;;;;;4953445;28;20034;-72
2021/11/12 22:29:43;;;;;;;73.20;38.95;;;2.40;99.90;;;;;;4952805;28;20046;-70
2021/11/12 22:32:09;;;;;;;83.20;40.88;;;2.30;99.90;;;;;;4953356;28;20043;-71
2021/11/12 22:34:35;;;;;;;83.03;42.75;;;2.40;99.90;;;;;;4963578;28;20051;-73
2021/11/12 22:37:02;;;;;;;67.10;40.13;;;2.40;99.90;;;;;;4960757;28;20038;-71
2021/11/12 22:39:28;;;;;;;77.35;43.88;;;2.40;99.90;;;;;;4953068;28;20038;-71
2021/11/12 22:41:54;;;;;;;82.75;40.78;;;2.40;99.90;;;;;;4964512;28;20432;-72
2021/11/12 22:44:21;;;;;;;87.53;43.88;;;2.40;99.90;;;;;;4970881;28;20034;-71
2021/11/12 22:46:47;;;;;;;75.55;42.50;;;2.40;99.90;;;;;;4971167;28;20035;-70
2021/11/12 22:49:14;;;;;;;72.90;41.15;;;2.40;99.90;;;;;;4959630;28;20043;-71
2021/11/12 22:51:41;;;;;;;78.03;43.58;;;2.50;99.90;;;;;;4955207;28;20035;-71
2021/11/12 22:54:07;;;;;;;80.75;41.90;;;2.50;99.90;;;;;;4959358;28;20026;-71
2021/11/12 22:56:34;;;;;;;80.80;42.50;;;2.50;99.90;;;;;;4960039;28;20047;-72
2021/11/12 22:59:00;;;;;;;83.22;42.33;;;2.50;99.90;;;;;;4955743;28;20027;-71
2021/11/12 23:01:30;;;;;;;86.50;46.15;;;2.50;99.90;;;;;;4956980;28;20478;-71
2021/11/12 23:03:59;;;;;;;75.78;43.95;;;2.50;99.90;;;;;;4964568;28;20043;-71